sensor_id;sensor_type;location;lat;lon;timestamp;temperature;humidity
1988;DHT22;12775;46.994;15.498;2022-09-09T00:01:37;19.90;98.30
1988;DHT22;12775;46.994;15.498;2022-09-09T00:04:20;19.80;98.30
1988;DHT22;12775;46.994;15.498;2022-09-09T00:06:45;19.80;98.50
1988;DHT22;12775;46.994;15.498;2022-09-09T00:09:16;19.80;98.80
1988;DHT22;12775;46.994;15.498;2022-09-09T00:11:42;19.70;99.00
1988;DHT22;12775;46.994;15.498;2022-09-09T00:14:11;19.60;98.90
1988;DHT22;12775;46.994;15.498;2022-09-09T00:16:36;19.50;99.10
1988;DHT22;12775;46.994;15.498;2022-09-09T00:19:12;19.50;99.40
1988;DHT22;12775;46.994;15.498;2022-09-09T00:21:37;19.50;99.20
1988;DHT22;12775;46.994;15.498;2022-09-09T00:24:15;19.40;99.50
1988;DHT22;12775;46.994;15.498;2022-09-09T00:26:40;19.30;99.90
1988;DHT22;12775;46.994;15.498;2022-09-09T00:29:22;19.20;99.70
1988;DHT22;12775;46.994;15.498;2022-09-09T00:31:47;19.20;99.80
1988;DHT22;12775;46.994;15.498;2022-09-09T00:34:18;19.10;99.90
1988;DHT22;12775;46.994;15.498;2022-09-09T00:36:42;19.00;99.90
1988;DHT22;12775;46.994;15.498;2022-09-09T00:39:23;19.00;99.90
1988;DHT22;12775;46.994;15.498;2022-09-09T00:41:46;18.90;99.90
1988;DHT22;12775;46.994;15.498;2022-09-09T00:44:30;18.90;99.90
1988;DHT22;12775;46.994;15.498;2022-09-09T00:47:07;18.90;99.90
1988;DHT22;12775;46.994;15.498;2022-09-09T00:49:37;18.90;99.80
1988;DHT22;12775;46.994;15.498;2022-09-09T00:52:17;18.90;99.70
1988;DHT22;12775;46.994;15.498;2022-09-09T00:55:30;18.90;99.80
1988;DHT22;12775;46.994;15.498;2022-09-09T00:57:38;18.80;99.80
1988;DHT22;12775;46.994;15.498;2022-09-09T01:00:26;18.80;99.70
1988;DHT22;12775;46.994;15.498;2022-09-09T01:05:39;18.80;99.90
1988;DHT22;12775;46.994;15.498;2022-09-09T01:08:05;18.70;99.80
1988;DHT22;12775;46.994;15.498;2022-09-09T01:10:36;18.70;99.90
1988;DHT22;12775;46.994;15.498;2022-09-09T01:12:59;18.70;99.70
1988;DHT22;12775;46.994;15.498;2022-09-09T01:15:27;18.70;99.50
1988;DHT22;12775;46.994;15.498;2022-09-09T01:21:14;18.70;99.50
1988;DHT22;12775;46.994;15.498;2022-09-09T01:23:40;18.70;99.20
1988;DHT22;12775;46.994;15.498;2022-09-09T01:26:13;18.60;99.00
1988;DHT22;12775;46.994;15.498;2022-09-09T01:28:39;18.60;99.40
1988;DHT22;12775;46.994;15.498;2022-09-09T01:31:06;18.60;99.60
1988;DHT22;12775;46.994;15.498;2022-09-09T01:33:33;18.60;99.50
1988;DHT22;12775;46.994;15.498;2022-09-09T01:36:07;18.50;99.20
1988;DHT22;12775;46.994;15.498;2022-09-09T01:38:33;18.50;99.20
1988;DHT22;12775;46.994;15.498;2022-09-09T01:41:01;18.40;99.70
1988;DHT22;12775;46.994;15.498;2022-09-09T01:43:29;18.40;99.80
1988;DHT22;12775;46.994;15.498;2022-09-09T01:45:59;18.40;99.60
1988;DHT22;12775;46.994;15.498;2022-09-09T01:48:24;18.40;99.50
1988;DHT22;12775;46.994;15.498;2022-09-09T01:50:52;18.30;99.90
1988;DHT22;12775;46.994;15.498;2022-09-09T01:53:20;18.30;99.60
1988;DHT22;12775;46.994;15.498;2022-09-09T01:56:07;18.30;99.60
1988;DHT22;12775;46.994;15.498;2022-09-09T01:58:40;18.30;99.40
1988;DHT22;12775;46.994;15.498;2022-09-09T02:01:25;18.20;99.40
1988;DHT22;12775;46.994;15.498;2022-09-09T02:03:51;18.20;99.90
1988;DHT22;12775;46.994;15.498;2022-09-09T02:06:24;18.20;99.90
1988;DHT22;12775;46.994;15.498;2022-09-09T02:08:49;18.10;99.90
1988;DHT22;12775;46.994;15.498;2022-09-09T02:11:18;18.10;99.90
1988;DHT22;12775;46.994;15.498;2022-09-09T02:13:47;18.10;99.90
1988;DHT22;12775;46.994;15.498;2022-09-09T02:16:31;18.10;99.90
1988;DHT22;12775;46.994;15.498;2022-09-09T02:19:16;18.00;99.90
1988;DHT22;12775;46.994;15.498;2022-09-09T02:21:42;18.00;99.90
1988;DHT22;12775;46.994;15.498;2022-09-09T02:24:09;18.00;99.90
1988;DHT22;12775;46.994;15.498;2022-09-09T02:26:39;18.00;99.90
1988;DHT22;12775;46.994;15.498;2022-09-09T02:29:05;18.00;99.90
1988;DHT22;12775;46.994;15.498;2022-09-09T02:31:32;18.00;99.90
1988;DHT22;12775;46.994;15.498;2022-09-09T02:34:00;18.00;99.90
1988;DHT22;12775;46.994;15.498;2022-09-09T02:36:28;18.10;99.90
1988;DHT22;12775;46.994;15.498;2022-09-09T02:38:54;18.10;99.90
1988;DHT22;12775;46.994;15.498;2022-09-09T02:41:28;18.00;99.90
1988;DHT22;12775;46.994;15.498;2022-09-09T02:43:54;18.00;99.90
1988;DHT22;12775;46.994;15.498;2022-09-09T02:46:24;18.00;99.90
1988;DHT22;12775;46.994;15.498;2022-09-09T02:49:59;18.00;99.90
1988;DHT22;12775;46.994;15.498;2022-09-09T02:51:39;18.00;99.90
1988;DHT22;12775;46.994;15.498;2022-09-09T02:54:25;18.00;99.90
1988;DHT22;12775;46.994;15.498;2022-09-09T02:56:51;18.00;99.90
1988;DHT22;12775;46.994;15.498;2022-09-09T02:59:17;18.00;99.90
1988;DHT22;12775;46.994;15.498;2022-09-09T03:01:44;17.90;99.90
1988;DHT22;12775;46.994;15.498;2022-09-09T03:04:12;17.90;99.90
1988;DHT22;12775;46.994;15.498;2022-09-09T03:06:39;17.80;99.90
1988;DHT22;12775;46.994;15.498;2022-09-09T03:09:06;17.90;99.90
1988;DHT22;12775;46.994;15.498;2022-09-09T03:11:35;17.90;99.90
1988;DHT22;12775;46.994;15.498;2022-09-09T03:14:02;17.90;99.90
1988;DHT22;12775;46.994;15.498;2022-09-09T03:16:29;17.90;99.90
1988;DHT22;12775;46.994;15.498;2022-09-09T03:18:57;17.90;99.90
1988;DHT22;12775;46.994;15.498;2022-09-09T03:21:24;17.90;99.90
1988;DHT22;12775;46.994;15.498;2022-09-09T03:23:51;17.90;99.90
1988;DHT22;12775;46.994;15.498;2022-09-09T03:26:19;17.90;99.90
1988;DHT22;12775;46.994;15.498;2022-09-09T03:28:46;18.00;99.90
1988;DHT22;12775;46.994;15.498;2022-09-09T03:31:16;18.00;99.90
1988;DHT22;12775;46.994;15.498;2022-09-09T03:33:44;18.00;99.90
1988;DHT22;12775;46.994;15.498;2022-09-09T03:36:12;18.00;99.90
1988;DHT22;12775;46.994;15.498;2022-09-09T03:38:39;18.00;99.90
1988;DHT22;12775;46.994;15.498;2022-09-09T03:41:07;18.10;99.90
1988;DHT22;12775;46.994;15.498;2022-09-09T03:43:34;18.10;99.90
1988;DHT22;12775;46.994;15.498;2022-09-09T03:46:01;18.10;99.90
1988;DHT22;12775;46.994;15.498;2022-09-09T03:48:29;18.10;99.90
1988;DHT22;12775;46.994;15.498;2022-09-09T03:50:56;18.10;99.90
1988;DHT22;12775;46.994;15.498;2022-09-09T03:53:23;18.10;99.90
1988;DHT22;12775;46.994;15.498;2022-09-09T03:55:52;18.20;99.90
1988;DHT22;12775;46.994;15.498;2022-09-09T03:58:21;18.10;99.90
1988;DHT22;12775;46.994;15.498;2022-09-09T04:00:55;18.20;99.90
1988;DHT22;12775;46.994;15.498;2022-09-09T04:03:22;18.20;99.90
1988;DHT22;12775;46.994;15.498;2022-09-09T04:05:49;18.20;99.90
1988;DHT22;12775;46.994;15.498;2022-09-09T04:08:16;18.10;99.90
1988;DHT22;12775;46.994;15.498;2022-09-09T04:10:45;18.10;99.90
1988;DHT22;12775;46.994;15.498;2022-09-09T04:13:11;18.10;99.90
1988;DHT22;12775;46.994;15.498;2022-09-09T04:15:38;18.10;99.90
1988;DHT22;12775;46.994;15.498;2022-09-09T04:18:06;18.10;99.90
1988;DHT22;12775;46.994;15.498;2022-09-09T04:20:33;18.10;99.90
1988;DHT22;12775;46.994;15.498;2022-09-09T04:23:00;18.10;99.90
1988;DHT22;12775;46.994;15.498;2022-09-09T04:25:28;18.10;99.90
1988;DHT22;12775;46.994;15.498;2022-09-09T04:27:56;18.00;99.90
1988;DHT22;12775;46.994;15.498;2022-09-09T04:30:24;18.00;99.90
1988;DHT22;12775;46.994;15.498;2022-09-09T04:32:51;18.00;99.90
1988;DHT22;12775;46.994;15.498;2022-09-09T04:35:19;18.00;99.90
1988;DHT22;12775;46.994;15.498;2022-09-09T04:37:46;18.00;99.90
1988;DHT22;12775;46.994;15.498;2022-09-09T04:40:16;17.90;99.90
1988;DHT22;12775;46.994;15.498;2022-09-09T04:42:44;17.90;99.90
1988;DHT22;12775;46.994;15.498;2022-09-09T04:45:11;17.80;99.90
1988;DHT22;12775;46.994;15.498;2022-09-09T04:47:38;17.80;99.90
1988;DHT22;12775;46.994;15.498;2022-09-09T04:50:06;17.80;99.90
1988;DHT22;12775;46.994;15.498;2022-09-09T04:52:34;17.70;99.90
1988;DHT22;12775;46.994;15.498;2022-09-09T04:55:01;17.70;99.90
1988;DHT22;12775;46.994;15.498;2022-09-09T04:57:29;17.70;99.90
1988;DHT22;12775;46.994;15.498;2022-09-09T04:59:57;17.70;99.90
1988;DHT22;12775;46.994;15.498;2022-09-09T05:02:24;17.80;99.90
1988;DHT22;12775;46.994;15.498;2022-09-09T05:04:52;17.70;99.90
1988;DHT22;12775;46.994;15.498;2022-09-09T05:07:19;17.70;99.90
1988;DHT22;12775;46.994;15.498;2022-09-09T05:09:46;17.70;99.90
1988;DHT22;12775;46.994;15.498;2022-09-09T05:12:14;17.70;99.90
1988;DHT22;12775;46.994;15.498;2022-09-09T05:14:43;17.70;99.90
1988;DHT22;12775;46.994;15.498;2022-09-09T05:17:10;17.70;99.90
1988;DHT22;12775;46.994;15.498;2022-09-09T05:19:37;17.60;99.90
1988;DHT22;12775;46.994;15.498;2022-09-09T05:22:05;17.60;99.90
1988;DHT22;12775;46.994;15.498;2022-09-09T05:24:32;17.60;99.90
1988;DHT22;12775;46.994;15.498;2022-09-09T05:26:59;17.60;99.90
1988;DHT22;12775;46.994;15.498;2022-09-09T05:29:27;17.60;99.90
1988;DHT22;12775;46.994;15.498;2022-09-09T05:31:54;17.50;99.90
1988;DHT22;12775;46.994;15.498;2022-09-09T05:34:21;17.50;99.90
1988;DHT22;12775;46.994;15.498;2022-09-09T05:36:49;17.50;99.90
1988;DHT22;12775;46.994;15.498;2022-09-09T05:39:16;17.50;99.90
1988;DHT22;12775;46.994;15.498;2022-09-09T05:41:43;17.50;99.90
1988;DHT22;12775;46.994;15.498;2022-09-09T05:44:11;17.50;99.90
1988;DHT22;12775;46.994;15.498;2022-09-09T05:46:39;17.50;99.90
1988;DHT22;12775;46.994;15.498;2022-09-09T05:49:06;17.50;99.90
1988;DHT22;12775;46.994;15.498;2022-09-09T05:51:33;17.50;99.90
1988;DHT22;12775;46.994;15.498;2022-09-09T05:54:01;17.40;99.90
1988;DHT22;12775;46.994;15.498;2022-09-09T05:56:30;17.40;99.90
1988;DHT22;12775;46.994;15.498;2022-09-09T05:58:57;17.40;99.90
1988;DHT22;12775;46.994;15.498;2022-09-09T06:01:25;17.40;99.90
1988;DHT22;12775;46.994;15.498;2022-09-09T06:03:52;17.40;99.90
1988;DHT22;12775;46.994;15.498;2022-09-09T06:06:20;17.40;99.90
1988;DHT22;12775;46.994;15.498;2022-09-09T06:08:47;17.30;99.90
1988;DHT22;12775;46.994;15.498;2022-09-09T06:11:16;17.30;99.90
1988;DHT22;12775;46.994;15.498;2022-09-09T06:13:42;17.40;99.90
1988;DHT22;12775;46.994;15.498;2022-09-09T06:16:10;17.40;99.90
1988;DHT22;12775;46.994;15.498;2022-09-09T06:18:37;17.50;99.90
1988;DHT22;12775;46.994;15.498;2022-09-09T06:21:05;17.50;99.90
1988;DHT22;12775;46.994;15.498;2022-09-09T06:23:33;17.60;99.90
1988;DHT22;12775;46.994;15.498;2022-09-09T06:26:03;17.60;99.90
1988;DHT22;12775;46.994;15.498;2022-09-09T06:28:29;17.60;99.90
1988;DHT22;12775;46.994;15.498;2022-09-09T06:30:59;17.60;99.90
1988;DHT22;12775;46.994;15.498;2022-09-09T06:33:25;17.70;99.90
1988;DHT22;12775;46.994;15.498;2022-09-09T06:35:53;17.70;99.90
1988;DHT22;12775;46.994;15.498;2022-09-09T06:38:20;17.70;99.90
1988;DHT22;12775;46.994;15.498;2022-09-09T06:40:52;17.70;99.90
1988;DHT22;12775;46.994;15.498;2022-09-09T06:43:19;17.80;99.90
1988;DHT22;12775;46.994;15.498;2022-09-09T06:46:10;17.90;99.90
1988;DHT22;12775;46.994;15.498;2022-09-09T06:48:35;17.90;99.90
1988;DHT22;12775;46.994;15.498;2022-09-09T06:51:05;17.90;99.90
1988;DHT22;12775;46.994;15.498;2022-09-09T06:53:33;18.10;99.90
1988;DHT22;12775;46.994;15.498;2022-09-09T06:56:00;18.10;99.90
1988;DHT22;12775;46.994;15.498;2022-09-09T06:58:26;18.20;99.90
1988;DHT22;12775;46.994;15.498;2022-09-09T07:00:52;18.30;99.90
1988;DHT22;12775;46.994;15.498;2022-09-09T07:03:20;18.40;99.90
1988;DHT22;12775;46.994;15.498;2022-09-09T07:05:53;18.50;99.90
1988;DHT22;12775;46.994;15.498;2022-09-09T07:08:20;18.60;99.90
1988;DHT22;12775;46.994;15.498;2022-09-09T07:10:48;18.80;99.90
1988;DHT22;12775;46.994;15.498;2022-09-09T07:13:15;18.90;99.90
1988;DHT22;12775;46.994;15.498;2022-09-09T07:15:42;19.00;99.90
1988;DHT22;12775;46.994;15.498;2022-09-09T07:18:11;19.10;99.90
1988;DHT22;12775;46.994;15.498;2022-09-09T07:20:38;19.10;99.90
1988;DHT22;12775;46.994;15.498;2022-09-09T07:23:05;19.20;99.90
1988;DHT22;12775;46.994;15.498;2022-09-09T07:25:33;19.30;99.90
1988;DHT22;12775;46.994;15.498;2022-09-09T07:28:01;19.30;99.90
1988;DHT22;12775;46.994;15.498;2022-09-09T07:30:29;19.40;99.90
1988;DHT22;12775;46.994;15.498;2022-09-09T07:32:56;19.40;99.90
1988;DHT22;12775;46.994;15.498;2022-09-09T07:35:23;19.50;99.90
1988;DHT22;12775;46.994;15.498;2022-09-09T07:37:51;19.50;99.90
1988;DHT22;12775;46.994;15.498;2022-09-09T07:40:18;19.60;99.90
1988;DHT22;12775;46.994;15.498;2022-09-09T07:42:46;19.60;99.90
1988;DHT22;12775;46.994;15.498;2022-09-09T07:45:13;19.60;99.90
1988;DHT22;12775;46.994;15.498;2022-09-09T07:47:41;19.60;99.90
1988;DHT22;12775;46.994;15.498;2022-09-09T07:50:09;19.70;99.90
1988;DHT22;12775;46.994;15.498;2022-09-09T07:52:36;19.70;99.90
1988;DHT22;12775;46.994;15.498;2022-09-09T07:55:04;19.70;99.90
1988;DHT22;12775;46.994;15.498;2022-09-09T07:57:32;19.80;99.90
1988;DHT22;12775;46.994;15.498;2022-09-09T07:59:59;19.80;99.90
1988;DHT22;12775;46.994;15.498;2022-09-09T08:02:27;19.80;99.90
1988;DHT22;12775;46.994;15.498;2022-09-09T08:04:54;19.90;99.90
1988;DHT22;12775;46.994;15.498;2022-09-09T08:07:21;20.00;99.90
1988;DHT22;12775;46.994;15.498;2022-09-09T08:09:50;20.00;99.90
1988;DHT22;12775;46.994;15.498;2022-09-09T08:12:17;20.10;99.90
1988;DHT22;12775;46.994;15.498;2022-09-09T08:14:44;20.10;99.90
1988;DHT22;12775;46.994;15.498;2022-09-09T08:17:12;20.20;99.90
1988;DHT22;12775;46.994;15.498;2022-09-09T08:19:39;20.20;99.90
1988;DHT22;12775;46.994;15.498;2022-09-09T08:22:06;20.30;99.90
1988;DHT22;12775;46.994;15.498;2022-09-09T08:24:34;20.30;99.90
1988;DHT22;12775;46.994;15.498;2022-09-09T08:27:01;20.30;99.90
1988;DHT22;12775;46.994;15.498;2022-09-09T08:29:28;20.40;99.90
1988;DHT22;12775;46.994;15.498;2022-09-09T08:31:56;20.50;99.90
1988;DHT22;12775;46.994;15.498;2022-09-09T08:34:24;20.50;99.90
1988;DHT22;12775;46.994;15.498;2022-09-09T08:36:51;20.50;99.90
1988;DHT22;12775;46.994;15.498;2022-09-09T08:39:18;20.50;99.90
1988;DHT22;12775;46.994;15.498;2022-09-09T08:41:55;20.50;99.90
1988;DHT22;12775;46.994;15.498;2022-09-09T08:44:34;20.50;99.90
1988;DHT22;12775;46.994;15.498;2022-09-09T08:47:11;20.50;99.90
1988;DHT22;12775;46.994;15.498;2022-09-09T08:49:45;20.60;99.90
1988;DHT22;12775;46.994;15.498;2022-09-09T08:52:12;20.60;99.90
1988;DHT22;12775;46.994;15.498;2022-09-09T08:54:36;20.70;99.90
1988;DHT22;12775;46.994;15.498;2022-09-09T08:57:03;20.80;99.90
1988;DHT22;12775;46.994;15.498;2022-09-09T08:59:31;20.90;99.90
1988;DHT22;12775;46.994;15.498;2022-09-09T09:02:03;21.00;99.90
1988;DHT22;12775;46.994;15.498;2022-09-09T09:05:05;21.00;99.90
1988;DHT22;12775;46.994;15.498;2022-09-09T09:07:42;21.10;99.90
1988;DHT22;12775;46.994;15.498;2022-09-09T09:10:47;21.10;99.90
1988;DHT22;12775;46.994;15.498;2022-09-09T09:12:56;21.30;99.90
1988;DHT22;12775;46.994;15.498;2022-09-09T09:15:24;21.20;99.90
1988;DHT22;12775;46.994;15.498;2022-09-09T09:17:50;21.50;99.90
1988;DHT22;12775;46.994;15.498;2022-09-09T09:20:18;21.60;99.90
1988;DHT22;12775;46.994;15.498;2022-09-09T09:22:50;21.80;99.90
1988;DHT22;12775;46.994;15.498;2022-09-09T09:25:20;22.00;99.90
1988;DHT22;12775;46.994;15.498;2022-09-09T09:28:00;22.00;99.90
1988;DHT22;12775;46.994;15.498;2022-09-09T09:30:34;22.20;99.90
1988;DHT22;12775;46.994;15.498;2022-09-09T09:32:59;22.30;99.90
1988;DHT22;12775;46.994;15.498;2022-09-09T09:35:26;22.40;98.50
1988;DHT22;12775;46.994;15.498;2022-09-09T09:37:53;22.40;99.30
1988;DHT22;12775;46.994;15.498;2022-09-09T09:40:21;22.60;99.90
1988;DHT22;12775;46.994;15.498;2022-09-09T09:42:52;22.70;99.90
1988;DHT22;12775;46.994;15.498;2022-09-09T09:45:26;22.80;99.90
1988;DHT22;12775;46.994;15.498;2022-09-09T09:47:57;22.70;99.90
1988;DHT22;12775;46.994;15.498;2022-09-09T09:50:17;23.10;99.90
1988;DHT22;12775;46.994;15.498;2022-09-09T09:52:51;23.20;99.40
1988;DHT22;12775;46.994;15.498;2022-09-09T09:55:12;23.20;99.40
1988;DHT22;12775;46.994;15.498;2022-09-09T09:57:38;23.50;99.90
1988;DHT22;12775;46.994;15.498;2022-09-09T10:00:15;23.60;99.70
1988;DHT22;12775;46.994;15.498;2022-09-09T10:02:42;23.80;98.60
1988;DHT22;12775;46.994;15.498;2022-09-09T10:05:16;23.90;99.90
1988;DHT22;12775;46.994;15.498;2022-09-09T10:07:43;24.10;99.90
1988;DHT22;12775;46.994;15.498;2022-09-09T10:10:12;24.30;99.50
1988;DHT22;12775;46.994;15.498;2022-09-09T10:13:12;24.20;99.40
1988;DHT22;12775;46.994;15.498;2022-09-09T10:15:42;24.50;97.50
1988;DHT22;12775;46.994;15.498;2022-09-09T10:18:58;24.60;96.80
1988;DHT22;12775;46.994;15.498;2022-09-09T10:24:07;24.80;98.20
1988;DHT22;12775;46.994;15.498;2022-09-09T10:26:59;24.90;98.60
1988;DHT22;12775;46.994;15.498;2022-09-09T10:30:08;25.10;98.00
1988;DHT22;12775;46.994;15.498;2022-09-09T10:32:41;25.20;96.80
1988;DHT22;12775;46.994;15.498;2022-09-09T10:35:33;25.30;96.20
1988;DHT22;12775;46.994;15.498;2022-09-09T10:38:16;25.40;96.20
1988;DHT22;12775;46.994;15.498;2022-09-09T10:43:39;25.60;95.80
1988;DHT22;12775;46.994;15.498;2022-09-09T10:47:24;25.60;93.30
1988;DHT22;12775;46.994;15.498;2022-09-09T10:49:09;25.50;91.70
1988;DHT22;12775;46.994;15.498;2022-09-09T10:51:46;25.50;93.00
1988;DHT22;12775;46.994;15.498;2022-09-09T10:54:25;25.50;93.00
1988;DHT22;12775;46.994;15.498;2022-09-09T10:56:52;25.50;94.70
1988;DHT22;12775;46.994;15.498;2022-09-09T10:59:21;25.50;94.40
1988;DHT22;12775;46.994;15.498;2022-09-09T11:02:11;25.50;94.20
1988;DHT22;12775;46.994;15.498;2022-09-09T11:04:34;25.60;92.40
1988;DHT22;12775;46.994;15.498;2022-09-09T11:07:02;25.60;93.50
1988;DHT22;12775;46.994;15.498;2022-09-09T11:09:28;25.60;93.70
1988;DHT22;12775;46.994;15.498;2022-09-09T11:11:55;25.60;93.50
1988;DHT22;12775;46.994;15.498;2022-09-09T11:14:33;25.70;94.40
1988;DHT22;12775;46.994;15.498;2022-09-09T11:17:01;25.70;94.30
1988;DHT22;12775;46.994;15.498;2022-09-09T11:19:34;25.70;93.20
1988;DHT22;12775;46.994;15.498;2022-09-09T11:22:02;25.70;93.40
1988;DHT22;12775;46.994;15.498;2022-09-09T11:24:37;25.70;93.40
1988;DHT22;12775;46.994;15.498;2022-09-09T11:27:06;25.80;93.40
1988;DHT22;12775;46.994;15.498;2022-09-09T11:29:56;25.80;93.60
1988;DHT22;12775;46.994;15.498;2022-09-09T11:35:26;25.80;91.20
1988;DHT22;12775;46.994;15.498;2022-09-09T11:40:55;25.80;92.40
1988;DHT22;12775;46.994;15.498;2022-09-09T11:43:24;25.80;93.20
1988;DHT22;12775;46.994;15.498;2022-09-09T11:45:52;25.80;92.70
1988;DHT22;12775;46.994;15.498;2022-09-09T11:48:28;25.90;93.40
1988;DHT22;12775;46.994;15.498;2022-09-09T11:51:02;26.00;93.20
1988;DHT22;12775;46.994;15.498;2022-09-09T11:53:28;26.00;93.10
1988;DHT22;12775;46.994;15.498;2022-09-09T11:56:02;26.00;83.50
1988;DHT22;12775;46.994;15.498;2022-09-09T11:58:28;26.00;88.50
1988;DHT22;12775;46.994;15.498;2022-09-09T12:00:55;26.10;91.40
1988;DHT22;12775;46.994;15.498;2022-09-09T12:06:19;26.10;92.10
1988;DHT22;12775;46.994;15.498;2022-09-09T12:08:47;26.00;90.00
1988;DHT22;12775;46.994;15.498;2022-09-09T12:11:12;26.00;90.10
1988;DHT22;12775;46.994;15.498;2022-09-09T12:13:40;26.10;92.10
1988;DHT22;12775;46.994;15.498;2022-09-09T12:16:26;26.10;90.50
1988;DHT22;12775;46.994;15.498;2022-09-09T12:18:35;26.10;91.20
1988;DHT22;12775;46.994;15.498;2022-09-09T12:23:50;26.10;88.20
1988;DHT22;12775;46.994;15.498;2022-09-09T12:26:37;26.10;90.10
1988;DHT22;12775;46.994;15.498;2022-09-09T12:31:50;26.00;90.00
1988;DHT22;12775;46.994;15.498;2022-09-09T12:34:34;26.00;86.60
1988;DHT22;12775;46.994;15.498;2022-09-09T12:36:50;25.90;90.90
1988;DHT22;12775;46.994;15.498;2022-09-09T12:39:20;26.00;90.90
1988;DHT22;12775;46.994;15.498;2022-09-09T12:41:52;26.00;87.50
1988;DHT22;12775;46.994;15.498;2022-09-09T12:44:19;25.80;84.30
1988;DHT22;12775;46.994;15.498;2022-09-09T12:46:46;25.80;86.00
1988;DHT22;12775;46.994;15.498;2022-09-09T12:49:37;25.80;86.00
1988;DHT22;12775;46.994;15.498;2022-09-09T12:52:06;25.70;82.20
1988;DHT22;12775;46.994;15.498;2022-09-09T12:54:34;25.50;86.50
1988;DHT22;12775;46.994;15.498;2022-09-09T12:57:00;25.30;86.80
1988;DHT22;12775;46.994;15.498;2022-09-09T13:02:02;25.20;87.60
1988;DHT22;12775;46.994;15.498;2022-09-09T13:04:29;25.20;88.80
1988;DHT22;12775;46.994;15.498;2022-09-09T13:07:12;25.20;90.30
1988;DHT22;12775;46.994;15.498;2022-09-09T13:09:39;25.10;87.00
1988;DHT22;12775;46.994;15.498;2022-09-09T13:12:06;25.00;88.80
1988;DHT22;12775;46.994;15.498;2022-09-09T13:14:34;25.00;89.60
1988;DHT22;12775;46.994;15.498;2022-09-09T13:17:02;24.80;90.40
1988;DHT22;12775;46.994;15.498;2022-09-09T13:19:31;24.80;91.80
1988;DHT22;12775;46.994;15.498;2022-09-09T13:21:57;24.90;92.10
1988;DHT22;12775;46.994;15.498;2022-09-09T13:24:30;25.00;92.30
1988;DHT22;12775;46.994;15.498;2022-09-09T13:26:55;25.00;92.10
1988;DHT22;12775;46.994;15.498;2022-09-09T13:29:22;25.10;92.40
1988;DHT22;12775;46.994;15.498;2022-09-09T13:31:50;25.10;92.30
1988;DHT22;12775;46.994;15.498;2022-09-09T13:34:26;25.10;92.40
1988;DHT22;12775;46.994;15.498;2022-09-09T13:36:58;25.20;92.50
1988;DHT22;12775;46.994;15.498;2022-09-09T13:39:23;25.20;90.90
1988;DHT22;12775;46.994;15.498;2022-09-09T13:41:50;25.10;90.00
1988;DHT22;12775;46.994;15.498;2022-09-09T13:44:22;25.00;90.00
1988;DHT22;12775;46.994;15.498;2022-09-09T13:46:48;25.00;89.10
1988;DHT22;12775;46.994;15.498;2022-09-09T13:49:19;24.90;89.00
1988;DHT22;12775;46.994;15.498;2022-09-09T13:51:47;25.00;91.50
1988;DHT22;12775;46.994;15.498;2022-09-09T13:54:14;25.00;92.10
1988;DHT22;12775;46.994;15.498;2022-09-09T13:56:41;25.00;91.00
1988;DHT22;12775;46.994;15.498;2022-09-09T13:59:10;24.90;90.70
1988;DHT22;12775;46.994;15.498;2022-09-09T14:01:36;24.90;91.00
1988;DHT22;12775;46.994;15.498;2022-09-09T14:04:04;24.90;91.70
1988;DHT22;12775;46.994;15.498;2022-09-09T14:06:32;24.90;91.20
1988;DHT22;12775;46.994;15.498;2022-09-09T14:08:59;24.90;91.10
1988;DHT22;12775;46.994;15.498;2022-09-09T14:11:26;24.90;91.20
1988;DHT22;12775;46.994;15.498;2022-09-09T14:13:54;24.90;92.70
1988;DHT22;12775;46.994;15.498;2022-09-09T14:16:21;24.90;92.20
1988;DHT22;12775;46.994;15.498;2022-09-09T14:18:48;24.90;92.20
1988;DHT22;12775;46.994;15.498;2022-09-09T14:21:15;24.90;91.60
1988;DHT22;12775;46.994;15.498;2022-09-09T14:23:43;24.90;91.80
1988;DHT22;12775;46.994;15.498;2022-09-09T14:26:10;24.80;90.70
1988;DHT22;12775;46.994;15.498;2022-09-09T14:28:37;24.80;91.70
1988;DHT22;12775;46.994;15.498;2022-09-09T14:31:05;24.80;93.20
1988;DHT22;12775;46.994;15.498;2022-09-09T14:33:32;24.80;94.20
1988;DHT22;12775;46.994;15.498;2022-09-09T14:36:00;24.80;94.20
1988;DHT22;12775;46.994;15.498;2022-09-09T14:38:30;24.90;94.40
1988;DHT22;12775;46.994;15.498;2022-09-09T14:40:56;24.90;94.70
1988;DHT22;12775;46.994;15.498;2022-09-09T14:43:24;24.90;94.80
1988;DHT22;12775;46.994;15.498;2022-09-09T14:45:51;24.90;94.90
1988;DHT22;12775;46.994;15.498;2022-09-09T14:48:18;24.90;94.50
1988;DHT22;12775;46.994;15.498;2022-09-09T14:50:46;24.90;95.60
1988;DHT22;12775;46.994;15.498;2022-09-09T14:53:13;25.00;95.40
1988;DHT22;12775;46.994;15.498;2022-09-09T14:55:41;24.90;95.50
1988;DHT22;12775;46.994;15.498;2022-09-09T14:58:08;24.90;95.30
1988;DHT22;12775;46.994;15.498;2022-09-09T15:00:35;24.90;94.90
1988;DHT22;12775;46.994;15.498;2022-09-09T15:03:03;24.90;94.60
1988;DHT22;12775;46.994;15.498;2022-09-09T15:05:30;24.80;94.00
1988;DHT22;12775;46.994;15.498;2022-09-09T15:07:57;24.70;94.50
1988;DHT22;12775;46.994;15.498;2022-09-09T15:10:25;24.70;94.60
1988;DHT22;12775;46.994;15.498;2022-09-09T15:12:52;24.60;94.20
1988;DHT22;12775;46.994;15.498;2022-09-09T15:15:19;24.60;94.50
1988;DHT22;12775;46.994;15.498;2022-09-09T15:17:47;24.50;94.00
1988;DHT22;12775;46.994;15.498;2022-09-09T15:20:14;24.50;95.10
1988;DHT22;12775;46.994;15.498;2022-09-09T15:22:42;24.40;95.70
1988;DHT22;12775;46.994;15.498;2022-09-09T15:25:09;24.40;95.50
1988;DHT22;12775;46.994;15.498;2022-09-09T15:27:36;24.40;95.70
1988;DHT22;12775;46.994;15.498;2022-09-09T15:30:04;24.40;96.50
1988;DHT22;12775;46.994;15.498;2022-09-09T15:32:32;24.40;96.00
1988;DHT22;12775;46.994;15.498;2022-09-09T15:35:00;24.30;96.30
1988;DHT22;12775;46.994;15.498;2022-09-09T15:37:28;24.30;96.40
1988;DHT22;12775;46.994;15.498;2022-09-09T15:39:55;24.20;96.40
1988;DHT22;12775;46.994;15.498;2022-09-09T15:42:23;24.10;95.00
1988;DHT22;12775;46.994;15.498;2022-09-09T15:44:50;23.90;94.70
1988;DHT22;12775;46.994;15.498;2022-09-09T15:47:17;23.90;95.30
1988;DHT22;12775;46.994;15.498;2022-09-09T15:49:45;23.70;95.20
1988;DHT22;12775;46.994;15.498;2022-09-09T15:52:13;23.60;95.50
1988;DHT22;12775;46.994;15.498;2022-09-09T15:54:40;23.40;95.20
1988;DHT22;12775;46.994;15.498;2022-09-09T15:57:07;23.40;95.20
1988;DHT22;12775;46.994;15.498;2022-09-09T15:59:35;23.20;95.10
1988;DHT22;12775;46.994;15.498;2022-09-09T16:02:02;23.10;95.70
1988;DHT22;12775;46.994;15.498;2022-09-09T16:04:31;23.10;95.90
1988;DHT22;12775;46.994;15.498;2022-09-09T16:07:00;23.00;95.90
1988;DHT22;12775;46.994;15.498;2022-09-09T16:09:26;23.00;96.20
1988;DHT22;12775;46.994;15.498;2022-09-09T16:11:57;23.00;96.40
1988;DHT22;12775;46.994;15.498;2022-09-09T16:14:24;23.00;96.40